Time,TemperatureF,DewpointF,PressureIn,WindDirection,WindDirectionDegrees,WindSpeedMPH,WindSpeedGustMPH,Humidity,HourlyPrecipIn,Conditions,Clouds,dailyrainin,SoftwareType,DateUTC
2013-05-01 00:03:00,38.0,33.0,30.36,WSW,249,0.0,0.0,83,0.00,,,0.00,,2013-05-01 04:03:00,
2013-05-01 00:12:00,38.0,33.0,30.36,WSW,249,0.0,0.0,83,0.00,,,0.00,,2013-05-01 04:12:00,
2013-05-01 00:22:00,37.0,33.0,30.36,WSW,249,0.0,0.0,85,0.00,,,0.00,,2013-05-01 04:22:00,
2013-05-01 00:32:00,37.0,33.0,30.37,WSW,249,0.0,0.0,86,0.00,,,0.00,,2013-05-01 04:32:00,
2013-05-01 00:43:00,37.0,33.0,30.37,WSW,249,0.0,0.0,86,0.00,,,0.00,,2013-05-01 04:43:00,
2013-05-01 00:52:00,38.0,36.0,30.37,West,281,2.0,3.0,92,0.00,,,0.00,,2013-05-01 04:52:00,
2013-05-01 01:02:00,39.0,37.0,30.37,West,281,1.0,3.0,92,0.00,,,0.00,,2013-05-01 05:02:00,
2013-05-01 01:12:00,39.0,37.0,30.37,West,281,1.0,3.0,92,0.00,,,0.00,,2013-05-01 05:12:00,
2013-05-01 01:22:00,38.0,34.0,30.38,West,281,0.0,0.0,87,0.00,,,0.00,,2013-05-01 05:22:00,
2013-05-01 01:32:00,36.0,33.0,30.38,West,281,0.0,0.0,89,0.00,,,0.00,,2013-05-01 05:32:00,
2013-05-01 01:42:00,36.0,33.0,30.38,West,281,0.0,0.0,89,0.00,,,0.00,,2013-05-01 05:42:00,
2013-05-01 01:52:00,37.0,35.0,30.39,West,281,0.0,0.0,93,0.00,,,0.00,,2013-05-01 05:52:00,
2013-05-01 02:02:00,36.0,34.0,30.39,West,281,0.0,0.0,91,0.00,,,0.00,,2013-05-01 06:02:00,
2013-05-01 02:12:00,36.0,34.0,30.39,West,281,0.0,0.0,91,0.00,,,0.00,,2013-05-01 06:12:00,
2013-05-01 02:22:00,36.0,34.0,30.38,West,281,0.0,0.0,92,0.00,,,0.00,,2013-05-01 06:22:00,
2013-05-01 02:32:00,36.0,34.0,30.38,West,281,0.0,0.0,91,0.00,,,0.00,,2013-05-01 06:32:00,
2013-05-01 02:42:00,36.0,34.0,30.38,West,281,0.0,0.0,91,0.00,,,0.00,,2013-05-01 06:42:00,
2013-05-01 02:52:00,35.0,33.0,30.38,West,281,0.0,0.0,92,0.00,,,0.00,,2013-05-01 06:52:00,
2013-05-01 03:01:00,35.0,33.0,30.38,West,281,0.0,0.0,93,0.00,,,0.00,,2013-05-01 07:01:00,
2013-05-01 03:11:00,35.0,33.0,30.38,West,281,0.0,0.0,93,0.00,,,0.00,,2013-05-01 07:11:00,
2013-05-01 03:21:00,34.0,32.0,30.39,West,281,0.0,0.0,92,0.00,,,0.00,,2013-05-01 07:21:00,
2013-05-01 03:32:00,35.0,33.0,30.39,West,281,0.0,0.0,93,0.00,,,0.00,,2013-05-01 07:32:00,
2013-05-01 03:42:00,35.0,33.0,30.39,West,281,0.0,0.0,93,0.00,,,0.00,,2013-05-01 07:42:00,
2013-05-01 03:52:00,35.0,33.0,30.40,West,281,0.0,0.0,94,0.00,,,0.00,,2013-05-01 07:52:00,
2013-05-01 04:02:00,34.0,32.0,30.40,West,281,0.0,0.0,93,0.00,,,0.00,,2013-05-01 08:02:00,
2013-05-01 04:12:00,34.0,32.0,30.40,West,281,0.0,0.0,93,0.00,,,0.00,,2013-05-01 08:12:00,
2013-05-01 04:22:00,34.0,32.0,30.40,West,281,0.0,0.0,93,0.00,,,0.00,,2013-05-01 08:22:00,
2013-05-01 04:32:00,33.0,31.0,30.41,West,281,0.0,0.0,93,0.00,,,0.00,,2013-05-01 08:32:00,
2013-05-01 04:42:00,33.0,31.0,30.41,West,281,0.0,0.0,93,0.00,,,0.00,,2013-05-01 08:42:00,
2013-05-01 04:53:00,33.0,31.0,30.41,West,281,0.0,0.0,94,0.00,,,0.00,,2013-05-01 08:53:00,
2013-05-01 05:01:00,33.0,31.0,30.41,West,281,0.0,0.0,94,0.00,,,0.00,,2013-05-01 09:01:00,
2013-05-01 05:12:00,33.0,31.0,30.41,West,281,0.0,0.0,94,0.00,,,0.00,,2013-05-01 09:12:00,
2013-05-01 05:22:00,33.0,31.0,30.42,West,281,0.0,0.0,94,0.00,,,0.00,,2013-05-01 09:22:00,
2013-05-01 05:33:00,33.0,31.0,30.42,West,281,0.0,0.0,94,0.00,,,0.00,,2013-05-01 09:33:00,
2013-05-01 05:43:00,33.0,31.0,30.42,West,281,0.0,0.0,94,0.00,,,0.00,,2013-05-01 09:43:00,
2013-05-01 05:53:00,32.0,30.0,30.42,West,281,0.0,0.0,94,0.00,,,0.00,,2013-05-01 09:53:00,
2013-05-01 06:03:00,32.0,30.0,30.42,West,281,0.0,0.0,94,0.00,,,0.00,,2013-05-01 10:03:00,
2013-05-01 06:12:00,32.0,30.0,30.42,West,281,0.0,0.0,94,0.00,,,0.00,,2013-05-01 10:12:00,
2013-05-01 06:22:00,33.0,31.0,30.43,West,281,0.0,0.0,94,0.00,,,0.00,,2013-05-01 10:22:00,
2013-05-01 06:33:00,33.0,32.0,30.43,West,281,0.0,0.0,95,0.00,,,0.00,,2013-05-01 10:33:00,
2013-05-01 06:42:00,33.0,32.0,30.43,West,281,0.0,0.0,95,0.00,,,0.00,,2013-05-01 10:42:00,
2013-05-01 06:53:00,35.0,34.0,30.43,West,281,0.0,0.0,95,0.00,,,0.00,,2013-05-01 10:53:00,
2013-05-01 07:02:00,38.0,37.0,30.44,West,281,0.0,0.0,95,0.00,,,0.00,,2013-05-01 11:02:00,
2013-05-01 07:11:00,38.0,37.0,30.44,West,281,0.0,0.0,95,0.00,,,0.00,,2013-05-01 11:11:00,
2013-05-01 07:22:00,39.0,38.0,30.45,West,281,0.0,0.0,95,0.00,,,0.00,,2013-05-01 11:22:00,
2013-05-01 07:32:00,39.0,38.0,30.45,West,281,0.0,0.0,95,0.00,,,0.00,,2013-05-01 11:32:00,
2013-05-01 07:42:00,39.0,38.0,30.45,West,281,0.0,0.0,95,0.00,,,0.00,,2013-05-01 11:42:00,
2013-05-01 07:52:00,43.0,41.0,30.45,West,281,0.0,0.0,91,0.00,,,0.00,,2013-05-01 11:52:00,
2013-05-01 08:02:00,43.0,41.0,30.45,West,281,0.0,0.0,91,0.00,,,0.00,,2013-05-01 12:02:00,
2013-05-01 08:11:00,43.0,41.0,30.45,West,281,0.0,0.0,91,0.00,,,0.00,,2013-05-01 12:11:00,
2013-05-01 08:21:00,43.0,41.0,30.45,West,281,0.0,0.0,91,0.00,,,0.00,,2013-05-01 12:21:00,
2013-05-01 11:33:00,61.0,38.0,30.44,SE,127,6.0,9.0,42,0.00,,,0.00,,2013-05-01 15:33:00,
2013-05-01 11:43:00,61.0,38.0,30.44,SE,127,6.0,9.0,42,0.00,,,0.00,,2013-05-01 15:43:00,
2013-05-01 11:53:00,62.0,35.0,30.45,SE,140,6.0,9.0,36,0.00,,,0.00,,2013-05-01 15:53:00,
2013-05-01 12:03:00,63.0,34.0,30.45,SE,139,4.0,9.0,34,0.00,,,0.00,,2013-05-01 16:03:00,
2013-05-01 12:12:00,63.0,34.0,30.45,SE,139,4.0,9.0,34,0.00,,,0.00,,2013-05-01 16:12:00,
2013-05-01 12:22:00,64.0,35.0,30.44,SSE,157,5.0,9.0,34,0.00,,,0.00,,2013-05-01 16:22:00,
2013-05-01 12:32:00,65.0,35.0,30.43,SSW,196,5.0,10.0,33,0.00,,,0.00,,2013-05-01 16:32:00,
2013-05-01 12:42:00,65.0,35.0,30.43,SSW,196,5.0,10.0,33,0.00,,,0.00,,2013-05-01 16:42:00,
2013-05-01 12:53:00,64.0,37.0,30.42,South,177,4.0,10.0,36,0.00,,,0.00,,2013-05-01 16:53:00,
2013-05-01 13:02:00,65.0,37.0,30.42,SSE,163,6.0,9.0,35,0.00,,,0.00,,2013-05-01 17:02:00,
2013-05-01 13:12:00,65.0,37.0,30.42,SSE,163,6.0,9.0,35,0.00,,,0.00,,2013-05-01 17:12:00,
2013-05-01 13:22:00,65.0,32.0,30.42,South,177,6.0,11.0,29,0.00,,,0.00,,2013-05-01 17:22:00,
2013-05-01 13:32:00,65.0,30.0,30.42,South,171,7.0,10.0,27,0.00,,,0.00,,2013-05-01 17:32:00,
2013-05-01 13:42:00,65.0,30.0,30.42,South,171,7.0,10.0,27,0.00,,,0.00,,2013-05-01 17:42:00,
2013-05-01 13:52:00,65.0,32.0,30.42,South,187,7.0,10.0,29,0.00,,,0.00,,2013-05-01 17:52:00,
2013-05-01 14:01:00,66.0,34.0,30.42,SSE,166,5.0,9.0,31,0.00,,,0.00,,2013-05-01 18:01:00,
2013-05-01 14:11:00,66.0,34.0,30.42,SSE,166,5.0,9.0,31,0.00,,,0.00,,2013-05-01 18:11:00,
2013-05-01 14:22:00,66.0,35.0,30.41,South,169,7.0,13.0,32,0.00,,,0.00,,2013-05-01 18:22:00,
2013-05-01 14:32:00,66.0,33.0,30.42,South,174,8.0,10.0,29,0.00,,,0.00,,2013-05-01 18:32:00,
2013-05-01 14:42:00,66.0,33.0,30.42,South,174,8.0,10.0,29,0.00,,,0.00,,2013-05-01 18:42:00,
2013-05-01 14:52:00,65.0,32.0,30.41,South,173,8.0,12.0,29,0.00,,,0.00,,2013-05-01 18:52:00,
2013-05-01 15:02:00,65.0,32.0,30.41,SW,216,8.0,12.0,29,0.00,,,0.00,,2013-05-01 19:02:00,
2013-05-01 15:11:00,65.0,32.0,30.41,SW,216,8.0,12.0,29,0.00,,,0.00,,2013-05-01 19:11:00,
2013-05-01 15:22:00,65.0,30.0,30.41,SSW,203,8.0,14.0,27,0.00,,,0.00,,2013-05-01 19:22:00,
2013-05-01 15:32:00,64.0,29.0,30.41,WSW,238,8.0,12.0,27,0.00,,,0.00,,2013-05-01 19:32:00,
2013-05-01 15:43:00,64.0,29.0,30.41,WSW,238,8.0,12.0,27,0.00,,,0.00,,2013-05-01 19:43:00,
2013-05-01 15:52:00,64.0,28.0,30.41,SW,231,8.0,12.0,26,0.00,,,0.00,,2013-05-01 19:52:00,
2013-05-01 16:02:00,64.0,26.0,30.41,SW,225,6.0,12.0,24,0.00,,,0.00,,2013-05-01 20:02:00,
2013-05-01 16:11:00,64.0,26.0,30.41,SW,225,6.0,12.0,24,0.00,,,0.00,,2013-05-01 20:11:00,
2013-05-01 16:22:00,64.0,31.0,30.41,SSW,205,6.0,11.0,29,0.00,,,0.00,,2013-05-01 20:22:00,
2013-05-01 16:32:00,63.0,30.0,30.41,SSW,211,7.0,12.0,29,0.00,,,0.00,,2013-05-01 20:32:00,
2013-05-01 16:42:00,63.0,30.0,30.41,SSW,211,7.0,12.0,29,0.00,,,0.00,,2013-05-01 20:42:00,
2013-05-01 16:52:00,63.0,29.0,30.42,SSW,204,5.0,11.0,27,0.00,,,0.00,,2013-05-01 20:52:00,
2013-05-01 17:01:00,62.0,29.0,30.41,SSW,196,6.0,12.0,29,0.00,,,0.00,,2013-05-01 21:01:00,
2013-05-01 17:11:00,62.0,29.0,30.41,SSW,196,6.0,12.0,29,0.00,,,0.00,,2013-05-01 21:11:00,
2013-05-01 17:22:00,63.0,29.0,30.42,SSW,209,7.0,11.0,27,0.00,,,0.00,,2013-05-01 21:22:00,
2013-05-01 17:32:00,62.0,30.0,30.42,SSW,208,8.0,11.0,30,0.00,,,0.00,,2013-05-01 21:32:00,
2013-05-01 17:43:00,62.0,30.0,30.42,SSW,208,8.0,11.0,30,0.00,,,0.00,,2013-05-01 21:43:00,
2013-05-01 17:53:00,61.0,29.0,30.42,WSW,248,9.0,11.0,30,0.00,,,0.00,,2013-05-01 21:53:00,
2013-05-01 18:03:00,60.0,26.0,30.42,SW,236,10.0,15.0,27,0.00,,,0.00,,2013-05-01 22:03:00,
2013-05-01 18:12:00,60.0,26.0,30.42,SW,236,10.0,15.0,27,0.00,,,0.00,,2013-05-01 22:12:00,
2013-05-01 18:23:00,59.0,24.0,30.43,WSW,240,5.0,13.0,26,0.00,,,0.00,,2013-05-01 22:23:00,
2013-05-01 18:33:00,59.0,30.0,30.42,WSW,238,4.0,8.0,33,0.00,,,0.00,,2013-05-01 22:33:00,
2013-05-01 18:42:00,59.0,30.0,30.42,WSW,238,4.0,8.0,33,0.00,,,0.00,,2013-05-01 22:42:00,
2013-05-01 18:53:00,58.0,28.0,30.42,SW,217,7.0,9.0,31,0.00,,,0.00,,2013-05-01 22:53:00,
2013-05-01 19:02:00,57.0,27.0,30.42,SSW,204,4.0,8.0,32,0.00,,,0.00,,2013-05-01 23:02:00,
2013-05-01 19:12:00,57.0,27.0,30.42,SSW,204,4.0,8.0,32,0.00,,,0.00,,2013-05-01 23:12:00,
2013-05-01 19:21:00,56.0,28.0,30.42,WSW,240,4.0,7.0,34,0.00,,,0.00,,2013-05-01 23:21:00,
2013-05-01 19:32:00,55.0,29.0,30.42,SW,216,3.0,5.0,36,0.00,,,0.00,,2013-05-01 23:32:00,
2013-05-01 19:42:00,55.0,29.0,30.42,SW,216,3.0,5.0,36,0.00,,,0.00,,2013-05-01 23:42:00,
2013-05-01 19:52:00,53.0,29.0,30.43,SW,216,0.0,2.0,39,0.00,,,0.00,,2013-05-01 23:52:00,
2013-05-01 20:01:00,52.0,31.0,30.42,SW,234,2.0,4.0,45,0.00,,,0.00,,2013-05-02 00:01:00,
2013-05-01 20:11:00,52.0,31.0,30.42,SW,234,2.0,4.0,45,0.00,,,0.00,,2013-05-02 00:11:00,
2013-05-01 20:22:00,51.0,34.0,30.43,South,190,1.0,2.0,52,0.00,,,0.00,,2013-05-02 00:22:00,
2013-05-01 20:32:00,50.0,38.0,30.44,South,171,0.0,2.0,63,0.00,,,0.00,,2013-05-02 00:32:00,
2013-05-01 20:42:00,50.0,38.0,30.44,South,171,0.0,2.0,63,0.00,,,0.00,,2013-05-02 00:42:00,
2013-05-01 20:52:00,49.0,37.0,30.44,South,175,1.0,3.0,62,0.00,,,0.00,,2013-05-02 00:52:00,
2013-05-01 21:01:00,48.0,40.0,30.44,South,171,0.0,3.0,75,0.00,,,0.00,,2013-05-02 01:01:00,
2013-05-01 21:11:00,48.0,40.0,30.44,South,171,0.0,3.0,75,0.00,,,0.00,,2013-05-02 01:11:00,
2013-05-01 21:22:00,47.0,40.0,30.44,South,171,2.0,3.0,76,0.00,,,0.00,,2013-05-02 01:22:00,
2013-05-01 21:32:00,47.0,42.0,30.44,South,187,1.0,4.0,82,0.00,,,0.00,,2013-05-02 01:32:00,
2013-05-01 21:42:00,47.0,42.0,30.44,South,187,1.0,4.0,82,0.00,,,0.00,,2013-05-02 01:42:00,
2013-05-01 21:52:00,46.0,41.0,30.44,SSW,198,0.0,2.0,83,0.00,,,0.00,,2013-05-02 01:52:00,
2013-05-01 22:02:00,45.0,40.0,30.45,SSW,198,0.0,0.0,83,0.00,,,0.00,,2013-05-02 02:02:00,
2013-05-01 22:12:00,45.0,40.0,30.45,SSW,198,0.0,0.0,83,0.00,,,0.00,,2013-05-02 02:12:00,
2013-05-01 22:21:00,45.0,41.0,30.44,SSW,198,0.0,0.0,85,0.00,,,0.00,,2013-05-02 02:21:00,
2013-05-01 22:32:00,45.0,41.0,30.44,SSW,198,0.0,0.0,85,0.00,,,0.00,,2013-05-02 02:32:00,
2013-05-01 22:42:00,45.0,41.0,30.44,SSW,198,0.0,0.0,85,0.00,,,0.00,,2013-05-02 02:42:00,
2013-05-01 22:51:00,45.0,41.0,30.44,SSW,198,0.0,0.0,85,0.00,,,0.00,,2013-05-02 02:51:00,
2013-05-01 23:01:00,43.0,40.0,30.44,SSW,200,0.0,0.0,88,0.00,,,0.00,,2013-05-02 03:01:00,
2013-05-01 23:11:00,43.0,40.0,30.44,SSW,200,0.0,0.0,88,0.00,,,0.00,,2013-05-02 03:11:00,
2013-05-01 23:22:00,42.0,39.0,30.44,SSW,200,0.0,0.0,89,0.00,,,0.00,,2013-05-02 03:22:00,
2013-05-01 23:33:00,41.0,38.0,30.44,SSW,200,0.0,0.0,90,0.00,,,0.00,,2013-05-02 03:33:00,
2013-05-01 23:43:00,41.0,38.0,30.44,SSW,200,0.0,0.0,90,0.00,,,0.00,,2013-05-02 03:43:00,
2013-05-01 23:53:00,42.0,39.0,30.44,SSW,200,0.0,0.0,90,0.00,,,0.00,,2013-05-02 03:53:00,